Terminal Aerodrome Forecast
Issued by NWS Greer, SC

Home | Current Version | Previous Version | Text Only | Print | Product List | Glossary On
Versions: 1 2 3 4 5 6 7 8 9 10 11 12 13 14 15 16 17 18
000
FTUS42 KGSP 232332
TAFAVL
TAF
KAVL 232332Z 2400/2424 35012G20KT P6SM SCT050
      TEMPO 2404/2408 BKN050
     FM240800 34013G20KT P6SM SCT040 BKN080
     FM241400 34014G22KT P6SM SCT250=

USA.gov is the U.S. government's official web portal to all federal, state and local government web resources and services.